X  Sluiten METAR luchtvaart weer gegevens      EHLW Leeuwarden Air Base
Temperatuur
13°C Temperatuur
11°C Dauwpunt
88% Vochtigheid



Wind
11 KM/U
7 MPH
3 M/S
6 KTS



320°
NW
Huidig weer

Lichte Regen Lichte Regen
Luchtdruk 1021.92 (hPa) - 30.18 (inHg)
Zicht 6.2 (mijl) - 10 (km)
Vliegveld
Vliegveld code EHLW

Locatie : Leeuwarden Air Base
Afstand: 30 (km)

Metar:
EHLW 110700Z AUTO 32006KT 260V350 9999 -RA FEW015CB BKN050 BKN058 13/11 Q1022 BLU

Tijd: 11-07-2020 09:00 CEST